sensor_id;sensor_type;location;lat;lon;timestamp;pressure;altitude;pressure_sealevel;temperature;humidity
32456;BME280;18912;43.270;27.942;2024-01-30T00:01:05;100179.41;;;5.63;64.34
32456;BME280;18912;43.270;27.942;2024-01-30T00:03:30;100174.44;;;5.37;65.13
32456;BME280;18912;43.270;27.942;2024-01-30T00:05:55;100179.72;;;5.27;65.85
32456;BME280;18912;43.270;27.942;2024-01-30T00:08:21;100189.69;;;5.36;65.84
32456;BME280;18912;43.270;27.942;2024-01-30T00:10:46;100174.59;;;5.35;66.44
32456;BME280;18912;43.270;27.942;2024-01-30T00:13:12;100155.28;;;5.41;65.94
32456;BME280;18912;43.270;27.942;2024-01-30T00:15:39;100176.03;;;5.28;66.19
32456;BME280;18912;43.270;27.942;2024-01-30T00:18:04;100169.69;;;5.40;65.92
32456;BME280;18912;43.270;27.942;2024-01-30T00:20:30;100181.16;;;5.42;66.06
32456;BME280;18912;43.270;27.942;2024-01-30T00:22:55;100183.53;;;5.67;65.16
32456;BME280;18912;43.270;27.942;2024-01-30T00:25:21;100177.44;;;5.65;65.62
32456;BME280;18912;43.270;27.942;2024-01-30T00:27:46;100181.03;;;5.76;65.21
32456;BME280;18912;43.270;27.942;2024-01-30T00:30:12;100179.44;;;5.41;66.43
32456;BME280;18912;43.270;27.942;2024-01-30T00:32:37;100172.94;;;5.66;65.42
32456;BME280;18912;43.270;27.942;2024-01-30T00:35:03;100170.31;;;5.76;65.54
32456;BME280;18912;43.270;27.942;2024-01-30T00:37:28;100174.84;;;5.75;64.57
32456;BME280;18912;43.270;27.942;2024-01-30T00:39:54;100165.47;;;5.69;65.20
32456;BME280;18912;43.270;27.942;2024-01-30T00:42:19;100175.34;;;5.69;65.40
32456;BME280;18912;43.270;27.942;2024-01-30T00:44:45;100178.31;;;5.55;66.15
32456;BME280;18912;43.270;27.942;2024-01-30T00:47:10;100176.16;;;5.81;66.03
32456;BME280;18912;43.270;27.942;2024-01-30T00:49:36;100174.91;;;5.96;65.34
32456;BME280;18912;43.270;27.942;2024-01-30T00:52:01;100174.56;;;5.89;65.76
32456;BME280;18912;43.270;27.942;2024-01-30T00:54:27;100169.22;;;5.78;66.09
32456;BME280;18912;43.270;27.942;2024-01-30T00:56:52;100169.41;;;5.54;66.35
32456;BME280;18912;43.270;27.942;2024-01-30T00:59:18;100167.91;;;6.04;65.46
32456;BME280;18912;43.270;27.942;2024-01-30T01:01:44;100168.97;;;6.13;64.92
32456;BME280;18912;43.270;27.942;2024-01-30T01:04:09;100148.16;;;5.62;65.96
32456;BME280;18912;43.270;27.942;2024-01-30T01:06:35;100161.94;;;6.01;65.46
32456;BME280;18912;43.270;27.942;2024-01-30T01:09:00;100162.28;;;6.07;65.38
32456;BME280;18912;43.270;27.942;2024-01-30T01:11:25;100174.44;;;5.80;65.85
32456;BME280;18912;43.270;27.942;2024-01-30T01:13:51;100170.66;;;6.14;64.62
32456;BME280;18912;43.270;27.942;2024-01-30T01:16:16;100176.97;;;5.49;67.24
32456;BME280;18912;43.270;27.942;2024-01-30T01:18:42;100170.47;;;5.63;66.87
32456;BME280;18912;43.270;27.942;2024-01-30T01:21:07;100156.56;;;6.01;65.13
32456;BME280;18912;43.270;27.942;2024-01-30T01:23:33;100143.09;;;6.12;64.67
32456;BME280;18912;43.270;27.942;2024-01-30T01:25:58;100148.34;;;6.13;64.96
32456;BME280;18912;43.270;27.942;2024-01-30T01:28:24;100135.91;;;6.12;64.97
32456;BME280;18912;43.270;27.942;2024-01-30T01:30:50;100130.06;;;5.87;65.49
32456;BME280;18912;43.270;27.942;2024-01-30T01:33:16;100137.84;;;5.90;65.63
32456;BME280;18912;43.270;27.942;2024-01-30T01:35:42;100143.31;;;6.20;64.92
32456;BME280;18912;43.270;27.942;2024-01-30T01:38:08;100137.53;;;6.04;64.79
32456;BME280;18912;43.270;27.942;2024-01-30T01:40:33;100138.50;;;6.23;64.49
32456;BME280;18912;43.270;27.942;2024-01-30T01:43:03;100146.78;;;6.31;63.62
32456;BME280;18912;43.270;27.942;2024-01-30T01:45:28;100155.34;;;5.73;65.59
32456;BME280;18912;43.270;27.942;2024-01-30T01:47:54;100142.56;;;6.18;64.84
32456;BME280;18912;43.270;27.942;2024-01-30T01:50:20;100144.28;;;6.39;63.68
32456;BME280;18912;43.270;27.942;2024-01-30T01:52:50;100147.44;;;6.24;63.64
32456;BME280;18912;43.270;27.942;2024-01-30T01:55:16;100143.31;;;6.20;63.82
32456;BME280;18912;43.270;27.942;2024-01-30T01:57:47;100147.59;;;5.80;64.53
32456;BME280;18912;43.270;27.942;2024-01-30T02:00:13;100163.44;;;5.94;64.56
32456;BME280;18912;43.270;27.942;2024-01-30T02:02:39;100157.25;;;6.14;64.32
32456;BME280;18912;43.270;27.942;2024-01-30T02:05:05;100152.19;;;6.00;64.86
32456;BME280;18912;43.270;27.942;2024-01-30T02:07:31;100165.25;;;5.61;66.03
32456;BME280;18912;43.270;27.942;2024-01-30T02:09:56;100143.75;;;6.04;64.37
32456;BME280;18912;43.270;27.942;2024-01-30T02:12:22;100150.41;;;6.10;64.01
32456;BME280;18912;43.270;27.942;2024-01-30T02:14:48;100148.53;;;6.01;64.68
32456;BME280;18912;43.270;27.942;2024-01-30T02:17:15;100148.53;;;6.01;64.12
32456;BME280;18912;43.270;27.942;2024-01-30T02:19:41;100151.06;;;6.02;64.39
32456;BME280;18912;43.270;27.942;2024-01-30T02:22:07;100161.88;;;5.91;64.80
32456;BME280;18912;43.270;27.942;2024-01-30T02:24:33;100155.34;;;6.05;64.73
32456;BME280;18912;43.270;27.942;2024-01-30T02:26:58;100159.56;;;5.76;65.21
32456;BME280;18912;43.270;27.942;2024-01-30T02:29:24;100151.72;;;5.95;64.72
32456;BME280;18912;43.270;27.942;2024-01-30T02:31:50;100160.69;;;5.84;65.50
32456;BME280;18912;43.270;27.942;2024-01-30T02:34:15;100158.47;;;6.10;64.70
32456;BME280;18912;43.270;27.942;2024-01-30T02:36:44;100159.41;;;6.20;64.08
32456;BME280;18912;43.270;27.942;2024-01-30T02:39:10;100153.09;;;5.89;65.05
32456;BME280;18912;43.270;27.942;2024-01-30T02:41:36;100165.72;;;5.66;65.65
32456;BME280;18912;43.270;27.942;2024-01-30T02:44:03;100156.88;;;5.76;65.96
32456;BME280;18912;43.270;27.942;2024-01-30T02:46:29;100158.69;;;5.54;66.14
32456;BME280;18912;43.270;27.942;2024-01-30T02:48:55;100152.50;;;5.43;66.71
32456;BME280;18912;43.270;27.942;2024-01-30T02:51:21;100154.06;;;5.56;66.95
32456;BME280;18912;43.270;27.942;2024-01-30T02:53:46;100152.19;;;6.00;66.01
32456;BME280;18912;43.270;27.942;2024-01-30T02:56:12;100151.00;;;5.93;65.56
32456;BME280;18912;43.270;27.942;2024-01-30T02:58:39;100155.41;;;5.83;65.99
32456;BME280;18912;43.270;27.942;2024-01-30T03:01:04;100161.94;;;5.69;66.51
32456;BME280;18912;43.270;27.942;2024-01-30T03:03:30;100157.31;;;6.03;65.82
32456;BME280;18912;43.270;27.942;2024-01-30T03:05:55;100152.38;;;5.87;66.42
32456;BME280;18912;43.270;27.942;2024-01-30T03:08:21;100161.88;;;5.48;67.86
32456;BME280;18912;43.270;27.942;2024-01-30T03:10:46;100159.13;;;6.02;66.58
32456;BME280;18912;43.270;27.942;2024-01-30T03:13:12;100160.72;;;6.05;66.33
32456;BME280;18912;43.270;27.942;2024-01-30T03:15:38;100160.31;;;5.89;67.00
32456;BME280;18912;43.270;27.942;2024-01-30T03:18:04;100167.59;;;5.98;66.75
32456;BME280;18912;43.270;27.942;2024-01-30T03:20:29;100154.00;;;5.67;67.52
32456;BME280;18912;43.270;27.942;2024-01-30T03:22:55;100154.75;;;6.01;66.61
32456;BME280;18912;43.270;27.942;2024-01-30T03:25:21;100155.19;;;5.86;67.27
32456;BME280;18912;43.270;27.942;2024-01-30T03:27:47;100161.13;;;6.00;65.99
32456;BME280;18912;43.270;27.942;2024-01-30T03:30:12;100154.09;;;6.29;65.58
32456;BME280;18912;43.270;27.942;2024-01-30T03:32:38;100150.69;;;6.27;65.50
32456;BME280;18912;43.270;27.942;2024-01-30T03:35:04;100147.94;;;6.18;65.34
32456;BME280;18912;43.270;27.942;2024-01-30T03:37:30;100144.69;;;5.83;66.24
32456;BME280;18912;43.270;27.942;2024-01-30T03:39:55;100147.22;;;5.52;67.01
32456;BME280;18912;43.270;27.942;2024-01-30T03:42:21;100146.09;;;5.55;67.49
32456;BME280;18912;43.270;27.942;2024-01-30T03:44:47;100148.28;;;6.04;66.04
32456;BME280;18912;43.270;27.942;2024-01-30T03:47:13;100141.25;;;5.92;65.81
32456;BME280;18912;43.270;27.942;2024-01-30T03:49:40;100132.69;;;5.98;65.79
32456;BME280;18912;43.270;27.942;2024-01-30T03:52:05;100133.88;;;5.73;66.24
32456;BME280;18912;43.270;27.942;2024-01-30T03:54:31;100119.69;;;5.50;66.96
32456;BME280;18912;43.270;27.942;2024-01-30T03:56:57;100135.16;;;5.90;66.33
32456;BME280;18912;43.270;27.942;2024-01-30T03:59:22;100138.38;;;5.72;66.48
32456;BME280;18912;43.270;27.942;2024-01-30T04:01:52;100136.53;;;5.84;66.13
32456;BME280;18912;43.270;27.942;2024-01-30T04:04:18;100150.81;;;5.74;66.39
32456;BME280;18912;43.270;27.942;2024-01-30T04:06:44;100142.31;;;5.57;66.95
32456;BME280;18912;43.270;27.942;2024-01-30T04:09:10;100141.81;;;5.63;67.09
32456;BME280;18912;43.270;27.942;2024-01-30T04:11:36;100137.69;;;5.59;66.63
32456;BME280;18912;43.270;27.942;2024-01-30T04:14:02;100142.31;;;6.00;65.96
32456;BME280;18912;43.270;27.942;2024-01-30T04:16:28;100142.06;;;5.72;66.09
32456;BME280;18912;43.270;27.942;2024-01-30T04:18:53;100135.47;;;5.64;66.44
32456;BME280;18912;43.270;27.942;2024-01-30T04:21:21;100127.09;;;5.90;65.49
32456;BME280;18912;43.270;27.942;2024-01-30T04:23:47;100117.44;;;6.19;64.69
32456;BME280;18912;43.270;27.942;2024-01-30T04:26:13;100128.09;;;5.89;65.32
32456;BME280;18912;43.270;27.942;2024-01-30T04:28:41;100139.66;;;5.89;65.62
32456;BME280;18912;43.270;27.942;2024-01-30T04:31:07;100142.97;;;5.82;65.79
32456;BME280;18912;43.270;27.942;2024-01-30T04:33:32;100149.25;;;6.03;64.71
32456;BME280;18912;43.270;27.942;2024-01-30T04:35:58;100139.31;;;5.83;65.55
32456;BME280;18912;43.270;27.942;2024-01-30T04:38:24;100157.34;;;5.92;65.54
32456;BME280;18912;43.270;27.942;2024-01-30T04:40:49;100163.38;;;5.84;65.45
32456;BME280;18912;43.270;27.942;2024-01-30T04:43:15;100161.50;;;5.96;65.19
32456;BME280;18912;43.270;27.942;2024-01-30T04:45:41;100170.78;;;5.92;65.16
32456;BME280;18912;43.270;27.942;2024-01-30T04:48:07;100179.44;;;5.52;66.64
32456;BME280;18912;43.270;27.942;2024-01-30T04:50:32;100177.31;;;5.67;65.79
32456;BME280;18912;43.270;27.942;2024-01-30T04:52:58;100164.78;;;5.56;66.26
32456;BME280;18912;43.270;27.942;2024-01-30T04:55:24;100174.28;;;5.49;66.38
32456;BME280;18912;43.270;27.942;2024-01-30T04:57:50;100157.56;;;6.00;64.84
32456;BME280;18912;43.270;27.942;2024-01-30T05:00:15;100160.84;;;5.60;65.95
32456;BME280;18912;43.270;27.942;2024-01-30T05:02:41;100153.22;;;5.88;65.44
32456;BME280;18912;43.270;27.942;2024-01-30T05:05:07;100158.25;;;5.70;65.74
32456;BME280;18912;43.270;27.942;2024-01-30T05:07:33;100136.88;;;5.80;65.76
32456;BME280;18912;43.270;27.942;2024-01-30T05:09:59;100144.66;;;5.94;65.13
32456;BME280;18912;43.270;27.942;2024-01-30T05:12:25;100149.47;;;5.68;65.16
32456;BME280;18912;43.270;27.942;2024-01-30T05:14:50;100165.72;;;5.66;65.83
32456;BME280;18912;43.270;27.942;2024-01-30T05:17:16;100149.19;;;5.50;66.40
32456;BME280;18912;43.270;27.942;2024-01-30T05:19:43;100150.69;;;6.07;64.70
32456;BME280;18912;43.270;27.942;2024-01-30T05:22:09;100149.31;;;5.92;64.73
32456;BME280;18912;43.270;27.942;2024-01-30T05:24:36;100151.00;;;5.93;64.95
32456;BME280;18912;43.270;27.942;2024-01-30T05:27:02;100152.72;;;5.94;64.65
32456;BME280;18912;43.270;27.942;2024-01-30T05:29:28;100157.81;;;5.97;64.92
32456;BME280;18912;43.270;27.942;2024-01-30T05:31:54;100165.06;;;5.74;65.19
32456;BME280;18912;43.270;27.942;2024-01-30T05:34:19;100176.13;;;5.60;65.74
32456;BME280;18912;43.270;27.942;2024-01-30T05:36:45;100180.47;;;5.18;67.36
32456;BME280;18912;43.270;27.942;2024-01-30T05:39:10;100172.00;;;5.45;66.95
32456;BME280;18912;43.270;27.942;2024-01-30T05:41:36;100173.38;;;5.17;68.06
32456;BME280;18912;43.270;27.942;2024-01-30T05:44:02;100164.25;;;4.87;69.27
32456;BME280;18912;43.270;27.942;2024-01-30T05:46:27;100168.75;;;5.08;69.07
32456;BME280;18912;43.270;27.942;2024-01-30T05:48:53;100171.56;;;5.18;68.54
32456;BME280;18912;43.270;27.942;2024-01-30T05:51:18;100169.75;;;5.61;66.56
32456;BME280;18912;43.270;27.942;2024-01-30T05:53:44;100172.53;;;5.70;66.44
32456;BME280;18912;43.270;27.942;2024-01-30T05:56:09;100170.28;;;5.44;67.13
32456;BME280;18912;43.270;27.942;2024-01-30T05:58:35;100170.16;;;5.45;67.51
32456;BME280;18912;43.270;27.942;2024-01-30T06:01:06;100179.94;;;5.89;66.25
32456;BME280;18912;43.270;27.942;2024-01-30T06:03:32;100195.31;;;5.22;68.26
32456;BME280;18912;43.270;27.942;2024-01-30T06:05:57;100194.44;;;5.44;67.35
32456;BME280;18912;43.270;27.942;2024-01-30T06:08:23;100195.44;;;5.32;68.84
32456;BME280;18912;43.270;27.942;2024-01-30T06:10:48;100199.91;;;5.42;68.16
32456;BME280;18912;43.270;27.942;2024-01-30T06:13:14;100215.69;;;5.90;66.52
32456;BME280;18912;43.270;27.942;2024-01-30T06:15:40;100209.50;;;5.67;66.36
32456;BME280;18912;43.270;27.942;2024-01-30T06:18:06;100232.16;;;5.74;66.44
32456;BME280;18912;43.270;27.942;2024-01-30T06:20:31;100228.84;;;5.82;66.09
32456;BME280;18912;43.270;27.942;2024-01-30T06:22:57;100230.13;;;5.55;67.16
32456;BME280;18912;43.270;27.942;2024-01-30T06:25:23;100209.63;;;5.65;67.09
32456;BME280;18912;43.270;27.942;2024-01-30T06:27:49;100216.09;;;6.17;65.15
32456;BME280;18912;43.270;27.942;2024-01-30T06:30:14;100214.75;;;5.68;66.68
32456;BME280;18912;43.270;27.942;2024-01-30T06:32:40;100222.78;;;5.91;66.22
32456;BME280;18912;43.270;27.942;2024-01-30T06:35:06;100227.28;;;5.90;66.25
32456;BME280;18912;43.270;27.942;2024-01-30T06:37:32;100230.00;;;6.11;65.67
32456;BME280;18912;43.270;27.942;2024-01-30T06:39:57;100229.66;;;6.04;65.71
32456;BME280;18912;43.270;27.942;2024-01-30T06:42:23;100230.97;;;6.21;65.77
32456;BME280;18912;43.270;27.942;2024-01-30T06:44:49;100228.47;;;6.29;65.01
32456;BME280;18912;43.270;27.942;2024-01-30T06:47:15;100238.25;;;5.76;67.34
32456;BME280;18912;43.270;27.942;2024-01-30T06:49:41;100227.91;;;6.14;66.58
32456;BME280;18912;43.270;27.942;2024-01-30T06:52:07;100230.06;;;6.00;67.05
32456;BME280;18912;43.270;27.942;2024-01-30T06:54:33;100233.56;;;6.11;66.48
32456;BME280;18912;43.270;27.942;2024-01-30T06:56:59;100224.81;;;6.50;65.37
32456;BME280;18912;43.270;27.942;2024-01-30T06:59:25;100236.59;;;6.38;64.92
32456;BME280;18912;43.270;27.942;2024-01-30T07:01:51;100226.72;;;6.59;64.01
32456;BME280;18912;43.270;27.942;2024-01-30T07:04:16;100228.81;;;6.35;64.50
32456;BME280;18912;43.270;27.942;2024-01-30T07:06:43;100227.88;;;6.25;64.92
32456;BME280;18912;43.270;27.942;2024-01-30T07:09:09;100239.44;;;6.57;64.00
32456;BME280;18912;43.270;27.942;2024-01-30T07:11:35;100245.94;;;6.23;64.89
32456;BME280;18912;43.270;27.942;2024-01-30T07:14:00;100226.88;;;6.06;64.27
32456;BME280;18912;43.270;27.942;2024-01-30T07:16:29;100234.44;;;6.32;64.08
32456;BME280;18912;43.270;27.942;2024-01-30T07:18:54;100238.53;;;6.16;65.09
32456;BME280;18912;43.270;27.942;2024-01-30T07:21:21;100223.63;;;6.23;64.67
32456;BME280;18912;43.270;27.942;2024-01-30T07:23:50;100235.69;;;6.28;64.33
32456;BME280;18912;43.270;27.942;2024-01-30T07:26:16;100236.28;;;6.32;64.39
32456;BME280;18912;43.270;27.942;2024-01-30T07:28:41;100241.84;;;6.08;64.88
32456;BME280;18912;43.270;27.942;2024-01-30T07:31:07;100217.72;;;6.29;64.55
32456;BME280;18912;43.270;27.942;2024-01-30T07:33:33;100211.31;;;6.41;63.93
32456;BME280;18912;43.270;27.942;2024-01-30T07:35:58;100228.63;;;6.89;63.15
32456;BME280;18912;43.270;27.942;2024-01-30T07:38:24;100232.66;;;7.04;62.23
32456;BME280;18912;43.270;27.942;2024-01-30T07:40:49;100228.81;;;7.27;61.49
32456;BME280;18912;43.270;27.942;2024-01-30T07:43:15;100224.78;;;7.22;61.18
32456;BME280;18912;43.270;27.942;2024-01-30T07:45:40;100221.59;;;6.77;62.53
32456;BME280;18912;43.270;27.942;2024-01-30T07:48:06;100236.97;;;6.96;61.93
32456;BME280;18912;43.270;27.942;2024-01-30T07:50:32;100229.88;;;7.15;61.42
32456;BME280;18912;43.270;27.942;2024-01-30T07:52:59;100217.53;;;6.62;63.33
32456;BME280;18912;43.270;27.942;2024-01-30T07:58:13;100230.59;;;7.17;61.90
32456;BME280;18912;43.270;27.942;2024-01-30T08:00:38;100232.78;;;6.82;62.24
32456;BME280;18912;43.270;27.942;2024-01-30T08:03:04;100234.25;;;6.86;62.35
32456;BME280;18912;43.270;27.942;2024-01-30T08:05:30;100225.72;;;6.81;62.34
32456;BME280;18912;43.270;27.942;2024-01-30T08:07:56;100221.16;;;6.72;62.73
32456;BME280;18912;43.270;27.942;2024-01-30T08:10:22;100227.75;;;6.89;62.43
32456;BME280;18912;43.270;27.942;2024-01-30T08:12:47;100225.34;;;6.65;62.25
32456;BME280;18912;43.270;27.942;2024-01-30T08:15:13;100229.38;;;6.80;61.88
32456;BME280;18912;43.270;27.942;2024-01-30T08:17:39;100229.97;;;6.42;63.62
32456;BME280;18912;43.270;27.942;2024-01-30T08:20:05;100225.19;;;6.87;62.04
32456;BME280;18912;43.270;27.942;2024-01-30T08:22:33;100230.94;;;7.03;61.61
32456;BME280;18912;43.270;27.942;2024-01-30T08:24:59;100213.16;;;7.12;61.21
32456;BME280;18912;43.270;27.942;2024-01-30T08:27:24;100226.88;;;8.36;59.90
32456;BME280;18912;43.270;27.942;2024-01-30T08:29:50;100229.31;;;8.48;58.13
32456;BME280;18912;43.270;27.942;2024-01-30T08:32:15;100232.81;;;8.01;58.39
32456;BME280;18912;43.270;27.942;2024-01-30T08:34:42;100237.13;;;7.64;58.91
32456;BME280;18912;43.270;27.942;2024-01-30T08:37:07;100234.53;;;7.13;60.31
32456;BME280;18912;43.270;27.942;2024-01-30T08:39:33;100235.97;;;7.17;60.25
32456;BME280;18912;43.270;27.942;2024-01-30T08:41:59;100237.34;;;6.82;60.70
32456;BME280;18912;43.270;27.942;2024-01-30T08:44:24;100252.41;;;6.52;62.24
32456;BME280;18912;43.270;27.942;2024-01-30T08:46:50;100239.50;;;6.67;61.52
32456;BME280;18912;43.270;27.942;2024-01-30T08:49:20;100234.53;;;6.63;62.10
32456;BME280;18912;43.270;27.942;2024-01-30T08:51:45;100240.88;;;7.03;60.98
32456;BME280;18912;43.270;27.942;2024-01-30T08:54:11;100233.28;;;6.87;61.77
32456;BME280;18912;43.270;27.942;2024-01-30T08:56:36;100233.47;;;7.05;61.40
32456;BME280;18912;43.270;27.942;2024-01-30T08:59:02;100235.16;;;6.96;61.73
32456;BME280;18912;43.270;27.942;2024-01-30T09:01:27;100230.00;;;7.14;61.16
32456;BME280;18912;43.270;27.942;2024-01-30T09:03:53;100246.06;;;6.74;61.86
32456;BME280;18912;43.270;27.942;2024-01-30T09:06:19;100246.38;;;7.41;60.55
32456;BME280;18912;43.270;27.942;2024-01-30T09:08:44;100239.56;;;7.27;61.41
32456;BME280;18912;43.270;27.942;2024-01-30T09:11:12;100238.69;;;7.67;60.56
32456;BME280;18912;43.270;27.942;2024-01-30T09:13:38;100244.81;;;7.78;59.72
32456;BME280;18912;43.270;27.942;2024-01-30T09:16:05;100241.00;;;7.90;59.54
32456;BME280;18912;43.270;27.942;2024-01-30T09:18:31;100243.72;;;8.19;58.13
32456;BME280;18912;43.270;27.942;2024-01-30T09:20:57;100241.97;;;7.70;59.33
32456;BME280;18912;43.270;27.942;2024-01-30T09:23:22;100235.16;;;7.66;59.35
32456;BME280;18912;43.270;27.942;2024-01-30T09:25:48;100239.00;;;7.33;60.77
32456;BME280;18912;43.270;27.942;2024-01-30T09:28:14;100237.63;;;7.48;60.10
32456;BME280;18912;43.270;27.942;2024-01-30T09:30:39;100234.91;;;7.39;60.18
32456;BME280;18912;43.270;27.942;2024-01-30T09:33:06;100231.28;;;7.49;59.77
32456;BME280;18912;43.270;27.942;2024-01-30T09:35:32;100225.22;;;7.57;60.34
32456;BME280;18912;43.270;27.942;2024-01-30T09:37:58;100230.03;;;7.53;60.51
32456;BME280;18912;43.270;27.942;2024-01-30T09:40:24;100235.44;;;7.63;61.09
32456;BME280;18912;43.270;27.942;2024-01-30T09:42:53;100233.47;;;7.65;60.38
32456;BME280;18912;43.270;27.942;2024-01-30T09:45:23;100223.19;;;7.40;61.02
32456;BME280;18912;43.270;27.942;2024-01-30T09:47:49;100225.66;;;7.22;61.44
32456;BME280;18912;43.270;27.942;2024-01-30T09:50:15;100225.41;;;7.25;61.85
32456;BME280;18912;43.270;27.942;2024-01-30T09:52:42;100221.31;;;7.31;61.90
32456;BME280;18912;43.270;27.942;2024-01-30T09:55:09;100202.25;;;7.53;61.59
32456;BME280;18912;43.270;27.942;2024-01-30T09:57:34;100213.38;;;7.79;61.04
32456;BME280;18912;43.270;27.942;2024-01-30T10:00:00;100213.31;;;7.60;61.13
32456;BME280;18912;43.270;27.942;2024-01-30T10:02:26;100209.03;;;7.47;61.89
32456;BME280;18912;43.270;27.942;2024-01-30T10:04:52;100201.19;;;7.25;61.99
32456;BME280;18912;43.270;27.942;2024-01-30T10:07:18;100206.53;;;7.65;61.41
32456;BME280;18912;43.270;27.942;2024-01-30T10:09:45;100201.13;;;7.55;61.13
32456;BME280;18912;43.270;27.942;2024-01-30T10:12:12;100200.72;;;7.70;60.74
32456;BME280;18912;43.270;27.942;2024-01-30T10:14:40;100191.22;;;7.75;59.20
32456;BME280;18912;43.270;27.942;2024-01-30T10:17:09;100202.03;;;8.04;59.73
32456;BME280;18912;43.270;27.942;2024-01-30T10:19:36;100211.38;;;8.00;59.70
32456;BME280;18912;43.270;27.942;2024-01-30T10:22:03;100210.97;;;7.85;59.42
32456;BME280;18912;43.270;27.942;2024-01-30T10:24:28;100207.13;;;7.78;59.81
32456;BME280;18912;43.270;27.942;2024-01-30T10:26:57;100208.00;;;7.88;60.10
32456;BME280;18912;43.270;27.942;2024-01-30T10:29:24;100202.84;;;7.76;60.64
32456;BME280;18912;43.270;27.942;2024-01-30T10:32:02;100190.28;;;7.86;60.44
32456;BME280;18912;43.270;27.942;2024-01-30T10:34:29;100190.53;;;7.83;60.62
32456;BME280;18912;43.270;27.942;2024-01-30T10:39:29;100182.19;;;7.76;60.42
32456;BME280;18912;43.270;27.942;2024-01-30T10:41:56;100188.13;;;7.80;60.06
32456;BME280;18912;43.270;27.942;2024-01-30T10:44:23;100186.47;;;7.88;60.18
32456;BME280;18912;43.270;27.942;2024-01-30T10:46:51;100187.28;;;7.89;58.89
32456;BME280;18912;43.270;27.942;2024-01-30T10:49:23;100185.63;;;8.07;58.64
32456;BME280;18912;43.270;27.942;2024-01-30T10:51:49;100188.47;;;8.05;58.94
32456;BME280;18912;43.270;27.942;2024-01-30T10:54:17;100186.88;;;7.93;58.02
32456;BME280;18912;43.270;27.942;2024-01-30T10:56:45;100179.34;;;7.97;57.49
32456;BME280;18912;43.270;27.942;2024-01-30T10:59:12;100191.13;;;7.86;58.45
32456;BME280;18912;43.270;27.942;2024-01-30T11:01:39;100186.19;;;8.10;57.39
32456;BME280;18912;43.270;27.942;2024-01-30T11:04:05;100188.47;;;8.05;56.93
32456;BME280;18912;43.270;27.942;2024-01-30T11:06:31;100182.31;;;7.75;57.56
32456;BME280;18912;43.270;27.942;2024-01-30T11:09:04;100176.50;;;7.89;57.33
32456;BME280;18912;43.270;27.942;2024-01-30T11:11:57;100173.13;;;8.44;57.11
32456;BME280;18912;43.270;27.942;2024-01-30T11:14:29;100173.66;;;8.67;56.47
32456;BME280;18912;43.270;27.942;2024-01-30T11:16:58;100161.78;;;8.50;55.42
32456;BME280;18912;43.270;27.942;2024-01-30T11:19:25;100160.34;;;8.56;54.91
32456;BME280;18912;43.270;27.942;2024-01-30T11:21:52;100164.41;;;8.79;55.24
32456;BME280;18912;43.270;27.942;2024-01-30T11:24:23;100158.53;;;8.37;54.88
32456;BME280;18912;43.270;27.942;2024-01-30T11:27:02;100158.34;;;7.72;55.90
32456;BME280;18912;43.270;27.942;2024-01-30T11:29:34;100159.22;;;7.72;55.99
32456;BME280;18912;43.270;27.942;2024-01-30T11:32:00;100164.63;;;8.20;55.13
32456;BME280;18912;43.270;27.942;2024-01-30T11:34:26;100167.59;;;8.17;55.49
32456;BME280;18912;43.270;27.942;2024-01-30T11:37:03;100155.28;;;8.14;55.77
32456;BME280;18912;43.270;27.942;2024-01-30T11:39:35;100153.28;;;8.07;56.13
32456;BME280;18912;43.270;27.942;2024-01-30T11:42:03;100151.28;;;7.80;56.42
32456;BME280;18912;43.270;27.942;2024-01-30T11:44:30;100155.97;;;7.78;55.92
32456;BME280;18912;43.270;27.942;2024-01-30T11:46:56;100147.34;;;8.22;55.38
32456;BME280;18912;43.270;27.942;2024-01-30T11:49:23;100141.66;;;8.16;55.65
32456;BME280;18912;43.270;27.942;2024-01-30T11:51:49;100139.53;;;8.29;55.67
32456;BME280;18912;43.270;27.942;2024-01-30T11:54:15;100132.53;;;8.45;54.23
32456;BME280;18912;43.270;27.942;2024-01-30T11:56:42;100139.13;;;8.33;53.65
32456;BME280;18912;43.270;27.942;2024-01-30T11:59:09;100127.44;;;8.52;53.34
32456;BME280;18912;43.270;27.942;2024-01-30T12:01:34;100133.38;;;8.65;53.74
32456;BME280;18912;43.270;27.942;2024-01-30T12:04:00;100126.56;;;8.61;54.33
32456;BME280;18912;43.270;27.942;2024-01-30T12:06:27;100129.59;;;8.85;54.01
32456;BME280;18912;43.270;27.942;2024-01-30T12:09:00;100135.72;;;9.14;53.33
32456;BME280;18912;43.270;27.942;2024-01-30T12:11:29;100125.31;;;8.92;53.90
32456;BME280;18912;43.270;27.942;2024-01-30T12:13:55;100136.16;;;9.10;53.28
32456;BME280;18912;43.270;27.942;2024-01-30T12:16:21;100127.00;;;8.93;53.09
32456;BME280;18912;43.270;27.942;2024-01-30T12:18:48;100129.06;;;8.72;52.60
32456;BME280;18912;43.270;27.942;2024-01-30T12:21:16;100123.19;;;8.49;52.92
32456;BME280;18912;43.270;27.942;2024-01-30T12:23:43;100128.59;;;8.30;53.34
32456;BME280;18912;43.270;27.942;2024-01-30T12:26:09;100135.69;;;8.12;53.80
32456;BME280;18912;43.270;27.942;2024-01-30T12:28:35;100132.84;;;8.42;53.35
32456;BME280;18912;43.270;27.942;2024-01-30T12:31:02;100130.28;;;8.51;53.36
32456;BME280;18912;43.270;27.942;2024-01-30T12:33:29;100128.28;;;8.53;53.13
32456;BME280;18912;43.270;27.942;2024-01-30T12:35:55;100127.63;;;8.31;53.47
32456;BME280;18912;43.270;27.942;2024-01-30T12:38:21;100133.94;;;8.59;53.25
32456;BME280;18912;43.270;27.942;2024-01-30T12:40:46;100134.53;;;8.43;53.92
32456;BME280;18912;43.270;27.942;2024-01-30T12:43:13;100140.06;;;8.42;54.46
32456;BME280;18912;43.270;27.942;2024-01-30T12:45:41;100122.00;;;8.71;54.22
32456;BME280;18912;43.270;27.942;2024-01-30T12:48:07;100129.75;;;8.37;54.28
32456;BME280;18912;43.270;27.942;2024-01-30T12:50:33;100124.03;;;8.50;53.35